sensor_id;sensor_type;location;lat;lon;timestamp;temperature;humidity
69901;DHT22;57183;50.930;5.406;2022-07-09T00:01:46;16.80;99.90
69901;DHT22;57183;50.930;5.406;2022-07-09T00:04:11;16.70;99.90
69901;DHT22;57183;50.930;5.406;2022-07-09T00:06:37;16.80;99.90
69901;DHT22;57183;50.930;5.406;2022-07-09T00:09:03;16.80;99.90
69901;DHT22;57183;50.930;5.406;2022-07-09T00:11:28;16.70;99.90
69901;DHT22;57183;50.930;5.406;2022-07-09T00:13:54;16.70;99.90
69901;DHT22;57183;50.930;5.406;2022-07-09T00:16:20;16.70;99.90
69901;DHT22;57183;50.930;5.406;2022-07-09T00:18:46;16.60;99.90
69901;DHT22;57183;50.930;5.406;2022-07-09T00:21:11;16.60;99.90
69901;DHT22;57183;50.930;5.406;2022-07-09T00:23:37;16.40;99.90
69901;DHT22;57183;50.930;5.406;2022-07-09T00:26:03;16.30;99.90
69901;DHT22;57183;50.930;5.406;2022-07-09T00:28:28;16.20;99.90
69901;DHT22;57183;50.930;5.406;2022-07-09T00:30:54;16.30;99.90
69901;DHT22;57183;50.930;5.406;2022-07-09T00:33:20;16.50;99.90
69901;DHT22;57183;50.930;5.406;2022-07-09T00:35:45;16.70;99.90
69901;DHT22;57183;50.930;5.406;2022-07-09T00:38:11;16.60;99.90
69901;DHT22;57183;50.930;5.406;2022-07-09T00:40:37;16.50;99.90
69901;DHT22;57183;50.930;5.406;2022-07-09T00:43:03;16.50;99.90
69901;DHT22;57183;50.930;5.406;2022-07-09T00:45:28;16.40;99.90
69901;DHT22;57183;50.930;5.406;2022-07-09T00:47:54;16.30;99.90
69901;DHT22;57183;50.930;5.406;2022-07-09T00:50:20;16.20;99.90
69901;DHT22;57183;50.930;5.406;2022-07-09T00:52:46;16.00;99.90
69901;DHT22;57183;50.930;5.406;2022-07-09T00:55:12;16.00;99.90
69901;DHT22;57183;50.930;5.406;2022-07-09T00:57:39;16.10;99.90
69901;DHT22;57183;50.930;5.406;2022-07-09T01:00:06;16.10;99.90
69901;DHT22;57183;50.930;5.406;2022-07-09T01:02:31;16.10;99.90
69901;DHT22;57183;50.930;5.406;2022-07-09T01:04:57;16.10;99.90
69901;DHT22;57183;50.930;5.406;2022-07-09T01:07:23;16.20;99.90
69901;DHT22;57183;50.930;5.406;2022-07-09T01:09:48;16.10;99.90
69901;DHT22;57183;50.930;5.406;2022-07-09T01:12:14;16.00;99.90
69901;DHT22;57183;50.930;5.406;2022-07-09T01:14:40;16.00;99.90
69901;DHT22;57183;50.930;5.406;2022-07-09T01:17:06;16.10;99.90
69901;DHT22;57183;50.930;5.406;2022-07-09T01:19:33;16.00;99.90
69901;DHT22;57183;50.930;5.406;2022-07-09T01:22:00;15.90;99.90
69901;DHT22;57183;50.930;5.406;2022-07-09T01:24:26;15.80;99.90
69901;DHT22;57183;50.930;5.406;2022-07-09T01:26:53;15.70;99.90
69901;DHT22;57183;50.930;5.406;2022-07-09T01:29:20;15.60;99.90
69901;DHT22;57183;50.930;5.406;2022-07-09T01:31:46;15.60;99.90
69901;DHT22;57183;50.930;5.406;2022-07-09T01:34:11;15.60;99.90
69901;DHT22;57183;50.930;5.406;2022-07-09T01:36:37;15.50;99.90
69901;DHT22;57183;50.930;5.406;2022-07-09T01:39:04;15.50;99.90
69901;DHT22;57183;50.930;5.406;2022-07-09T01:41:29;15.40;99.90
69901;DHT22;57183;50.930;5.406;2022-07-09T01:43:56;15.30;99.90
69901;DHT22;57183;50.930;5.406;2022-07-09T01:46:22;15.30;99.90
69901;DHT22;57183;50.930;5.406;2022-07-09T01:48:48;15.30;99.90
69901;DHT22;57183;50.930;5.406;2022-07-09T01:51:13;15.30;99.90
69901;DHT22;57183;50.930;5.406;2022-07-09T01:53:39;15.40;99.90
69901;DHT22;57183;50.930;5.406;2022-07-09T01:56:09;15.40;99.90
69901;DHT22;57183;50.930;5.406;2022-07-09T01:58:35;15.40;99.90
69901;DHT22;57183;50.930;5.406;2022-07-09T02:01:02;15.30;99.90
69901;DHT22;57183;50.930;5.406;2022-07-09T02:03:28;15.30;99.90
69901;DHT22;57183;50.930;5.406;2022-07-09T02:05:53;15.30;99.90
69901;DHT22;57183;50.930;5.406;2022-07-09T02:08:19;15.20;99.90
69901;DHT22;57183;50.930;5.406;2022-07-09T02:10:45;15.10;99.90
69901;DHT22;57183;50.930;5.406;2022-07-09T02:13:11;15.00;99.90
69901;DHT22;57183;50.930;5.406;2022-07-09T02:15:37;14.90;99.90
69901;DHT22;57183;50.930;5.406;2022-07-09T02:18:03;14.90;99.90
69901;DHT22;57183;50.930;5.406;2022-07-09T02:20:30;14.90;99.90
69901;DHT22;57183;50.930;5.406;2022-07-09T02:22:55;14.90;99.90
69901;DHT22;57183;50.930;5.406;2022-07-09T02:25:21;15.00;99.90
69901;DHT22;57183;50.930;5.406;2022-07-09T02:27:47;15.00;99.90
69901;DHT22;57183;50.930;5.406;2022-07-09T02:30:13;15.00;99.90
69901;DHT22;57183;50.930;5.406;2022-07-09T02:32:38;14.90;99.90
69901;DHT22;57183;50.930;5.406;2022-07-09T02:35:05;14.90;99.90
69901;DHT22;57183;50.930;5.406;2022-07-09T02:37:31;14.90;99.90
69901;DHT22;57183;50.930;5.406;2022-07-09T02:39:57;14.90;99.90
69901;DHT22;57183;50.930;5.406;2022-07-09T02:42:23;14.90;99.90
69901;DHT22;57183;50.930;5.406;2022-07-09T02:44:49;14.70;99.90
69901;DHT22;57183;50.930;5.406;2022-07-09T02:47:14;14.70;99.90
69901;DHT22;57183;50.930;5.406;2022-07-09T02:49:40;14.50;99.90
69901;DHT22;57183;50.930;5.406;2022-07-09T02:52:06;14.50;99.90
69901;DHT22;57183;50.930;5.406;2022-07-09T02:54:32;14.60;99.90
69901;DHT22;57183;50.930;5.406;2022-07-09T02:56:59;14.60;99.90
69901;DHT22;57183;50.930;5.406;2022-07-09T02:59:25;14.60;99.90
69901;DHT22;57183;50.930;5.406;2022-07-09T03:01:51;14.60;99.90
69901;DHT22;57183;50.930;5.406;2022-07-09T03:04:16;14.60;99.90
69901;DHT22;57183;50.930;5.406;2022-07-09T03:06:42;14.50;99.90
69901;DHT22;57183;50.930;5.406;2022-07-09T03:09:08;14.50;99.90
69901;DHT22;57183;50.930;5.406;2022-07-09T03:11:34;14.50;99.90
69901;DHT22;57183;50.930;5.406;2022-07-09T03:13:59;14.40;99.90
69901;DHT22;57183;50.930;5.406;2022-07-09T03:16:25;14.40;99.90
69901;DHT22;57183;50.930;5.406;2022-07-09T03:18:51;14.30;99.90
69901;DHT22;57183;50.930;5.406;2022-07-09T03:21:16;14.30;99.90
69901;DHT22;57183;50.930;5.406;2022-07-09T03:23:42;14.10;99.90
69901;DHT22;57183;50.930;5.406;2022-07-09T03:26:08;14.10;99.90
69901;DHT22;57183;50.930;5.406;2022-07-09T03:28:34;14.10;99.90
69901;DHT22;57183;50.930;5.406;2022-07-09T03:31:00;14.10;99.90
69901;DHT22;57183;50.930;5.406;2022-07-09T03:33:25;14.10;99.90
69901;DHT22;57183;50.930;5.406;2022-07-09T03:35:53;14.10;99.90
69901;DHT22;57183;50.930;5.406;2022-07-09T03:38:20;14.10;99.90
69901;DHT22;57183;50.930;5.406;2022-07-09T03:40:45;14.10;99.90
69901;DHT22;57183;50.930;5.406;2022-07-09T03:43:11;14.10;99.90
69901;DHT22;57183;50.930;5.406;2022-07-09T03:45:37;14.10;99.90
69901;DHT22;57183;50.930;5.406;2022-07-09T03:48:03;14.20;99.90
69901;DHT22;57183;50.930;5.406;2022-07-09T03:50:28;14.20;99.90
69901;DHT22;57183;50.930;5.406;2022-07-09T03:52:54;14.10;99.90
69901;DHT22;57183;50.930;5.406;2022-07-09T03:55:20;14.20;99.90
69901;DHT22;57183;50.930;5.406;2022-07-09T03:57:45;14.30;99.90
69901;DHT22;57183;50.930;5.406;2022-07-09T04:00:11;14.20;99.90
69901;DHT22;57183;50.930;5.406;2022-07-09T04:02:37;14.20;99.90
69901;DHT22;57183;50.930;5.406;2022-07-09T04:05:03;14.20;99.90
69901;DHT22;57183;50.930;5.406;2022-07-09T04:07:28;14.20;99.90
69901;DHT22;57183;50.930;5.406;2022-07-09T04:09:54;14.20;99.90
69901;DHT22;57183;50.930;5.406;2022-07-09T04:12:21;14.30;99.90
69901;DHT22;57183;50.930;5.406;2022-07-09T04:14:46;14.10;99.90
69901;DHT22;57183;50.930;5.406;2022-07-09T04:17:12;13.90;99.90
69901;DHT22;57183;50.930;5.406;2022-07-09T04:19:38;13.90;99.90
69901;DHT22;57183;50.930;5.406;2022-07-09T04:22:04;13.90;99.90
69901;DHT22;57183;50.930;5.406;2022-07-09T04:24:30;14.00;99.90
69901;DHT22;57183;50.930;5.406;2022-07-09T04:26:56;14.00;99.90
69901;DHT22;57183;50.930;5.406;2022-07-09T04:29:22;14.10;99.90
69901;DHT22;57183;50.930;5.406;2022-07-09T04:31:48;14.10;99.90
69901;DHT22;57183;50.930;5.406;2022-07-09T04:34:13;14.20;99.90
69901;DHT22;57183;50.930;5.406;2022-07-09T04:36:39;14.20;99.90
69901;DHT22;57183;50.930;5.406;2022-07-09T04:39:05;14.30;99.90
69901;DHT22;57183;50.930;5.406;2022-07-09T04:41:31;14.30;99.90
69901;DHT22;57183;50.930;5.406;2022-07-09T04:43:56;14.40;99.90
69901;DHT22;57183;50.930;5.406;2022-07-09T04:46:22;14.40;99.90
69901;DHT22;57183;50.930;5.406;2022-07-09T04:48:48;14.50;99.90
69901;DHT22;57183;50.930;5.406;2022-07-09T04:51:14;14.50;99.90
69901;DHT22;57183;50.930;5.406;2022-07-09T04:53:40;14.60;99.90
69901;DHT22;57183;50.930;5.406;2022-07-09T04:56:06;14.90;99.90
69901;DHT22;57183;50.930;5.406;2022-07-09T04:58:32;15.30;99.90
69901;DHT22;57183;50.930;5.406;2022-07-09T05:00:58;15.50;99.90
69901;DHT22;57183;50.930;5.406;2022-07-09T05:03:24;15.70;99.90
69901;DHT22;57183;50.930;5.406;2022-07-09T05:05:53;15.80;99.90
69901;DHT22;57183;50.930;5.406;2022-07-09T05:08:19;15.80;99.90
69901;DHT22;57183;50.930;5.406;2022-07-09T05:10:45;16.00;99.90
69901;DHT22;57183;50.930;5.406;2022-07-09T05:13:11;16.20;99.90
69901;DHT22;57183;50.930;5.406;2022-07-09T05:15:36;16.40;99.90
69901;DHT22;57183;50.930;5.406;2022-07-09T05:18:02;16.60;99.90
69901;DHT22;57183;50.930;5.406;2022-07-09T05:20:28;16.70;99.90
69901;DHT22;57183;50.930;5.406;2022-07-09T05:22:54;16.90;99.90
69901;DHT22;57183;50.930;5.406;2022-07-09T05:25:20;17.00;99.90
69901;DHT22;57183;50.930;5.406;2022-07-09T05:27:46;17.20;99.90
69901;DHT22;57183;50.930;5.406;2022-07-09T05:30:12;17.50;99.90
69901;DHT22;57183;50.930;5.406;2022-07-09T05:32:41;17.70;99.90
69901;DHT22;57183;50.930;5.406;2022-07-09T05:35:07;17.90;99.90
69901;DHT22;57183;50.930;5.406;2022-07-09T05:37:33;18.10;99.90
69901;DHT22;57183;50.930;5.406;2022-07-09T05:39:58;18.20;99.90
69901;DHT22;57183;50.930;5.406;2022-07-09T05:42:25;18.20;99.90
69901;DHT22;57183;50.930;5.406;2022-07-09T05:44:51;18.10;99.90
69901;DHT22;57183;50.930;5.406;2022-07-09T05:47:17;18.10;99.90
69901;DHT22;57183;50.930;5.406;2022-07-09T05:49:42;18.10;99.90
69901;DHT22;57183;50.930;5.406;2022-07-09T05:52:08;18.20;99.90
69901;DHT22;57183;50.930;5.406;2022-07-09T05:54:34;18.10;99.90
69901;DHT22;57183;50.930;5.406;2022-07-09T05:56:59;18.20;99.90
69901;DHT22;57183;50.930;5.406;2022-07-09T05:59:25;18.40;99.90
69901;DHT22;57183;50.930;5.406;2022-07-09T06:01:51;18.60;99.90
69901;DHT22;57183;50.930;5.406;2022-07-09T06:04:16;18.80;99.90
69901;DHT22;57183;50.930;5.406;2022-07-09T06:06:42;18.70;99.90
69901;DHT22;57183;50.930;5.406;2022-07-09T06:09:07;18.70;99.90
69901;DHT22;57183;50.930;5.406;2022-07-09T06:11:33;18.80;99.90
69901;DHT22;57183;50.930;5.406;2022-07-09T06:14:00;18.80;99.90
69901;DHT22;57183;50.930;5.406;2022-07-09T06:16:25;19.00;99.90
69901;DHT22;57183;50.930;5.406;2022-07-09T06:18:51;19.10;99.90
69901;DHT22;57183;50.930;5.406;2022-07-09T06:21:17;19.10;99.90
69901;DHT22;57183;50.930;5.406;2022-07-09T06:23:42;19.20;99.90
69901;DHT22;57183;50.930;5.406;2022-07-09T06:26:08;19.30;99.90
69901;DHT22;57183;50.930;5.406;2022-07-09T06:28:36;19.40;99.90
69901;DHT22;57183;50.930;5.406;2022-07-09T06:31:02;19.50;99.90
69901;DHT22;57183;50.930;5.406;2022-07-09T06:33:28;19.60;99.90
69901;DHT22;57183;50.930;5.406;2022-07-09T06:35:53;19.80;99.90
69901;DHT22;57183;50.930;5.406;2022-07-09T06:38:19;20.00;99.90
69901;DHT22;57183;50.930;5.406;2022-07-09T06:40:45;20.30;99.90
69901;DHT22;57183;50.930;5.406;2022-07-09T06:43:10;20.70;99.90
69901;DHT22;57183;50.930;5.406;2022-07-09T06:45:38;21.20;99.90
69901;DHT22;57183;50.930;5.406;2022-07-09T06:48:04;21.30;99.90
69901;DHT22;57183;50.930;5.406;2022-07-09T06:50:30;21.30;99.90
69901;DHT22;57183;50.930;5.406;2022-07-09T06:52:55;21.60;99.90
69901;DHT22;57183;50.930;5.406;2022-07-09T06:55:21;21.80;99.90
69901;DHT22;57183;50.930;5.406;2022-07-09T06:57:47;22.00;99.90
69901;DHT22;57183;50.930;5.406;2022-07-09T07:00:13;22.20;99.90
69901;DHT22;57183;50.930;5.406;2022-07-09T07:02:39;22.20;99.90
69901;DHT22;57183;50.930;5.406;2022-07-09T07:05:05;22.40;99.90
69901;DHT22;57183;50.930;5.406;2022-07-09T07:07:31;22.70;99.90
69901;DHT22;57183;50.930;5.406;2022-07-09T07:09:57;22.70;99.90
69901;DHT22;57183;50.930;5.406;2022-07-09T07:12:22;22.90;99.90
69901;DHT22;57183;50.930;5.406;2022-07-09T07:14:48;23.00;99.90
69901;DHT22;57183;50.930;5.406;2022-07-09T07:17:14;23.00;99.90
69901;DHT22;57183;50.930;5.406;2022-07-09T07:19:39;23.00;99.90
69901;DHT22;57183;50.930;5.406;2022-07-09T07:22:05;23.00;99.90
69901;DHT22;57183;50.930;5.406;2022-07-09T07:24:31;23.10;99.90
69901;DHT22;57183;50.930;5.406;2022-07-09T07:26:57;23.20;99.90
69901;DHT22;57183;50.930;5.406;2022-07-09T07:29:23;23.20;99.90
69901;DHT22;57183;50.930;5.406;2022-07-09T07:31:49;23.40;99.90
69901;DHT22;57183;50.930;5.406;2022-07-09T07:34:15;23.50;99.90
69901;DHT22;57183;50.930;5.406;2022-07-09T07:36:43;23.60;99.90
69901;DHT22;57183;50.930;5.406;2022-07-09T07:39:08;23.50;99.90
69901;DHT22;57183;50.930;5.406;2022-07-09T07:41:34;23.30;99.90
69901;DHT22;57183;50.930;5.406;2022-07-09T07:44:00;23.20;99.90
69901;DHT22;57183;50.930;5.406;2022-07-09T07:46:25;23.30;99.90
69901;DHT22;57183;50.930;5.406;2022-07-09T07:48:51;23.30;99.90
69901;DHT22;57183;50.930;5.406;2022-07-09T07:51:16;23.20;99.90
69901;DHT22;57183;50.930;5.406;2022-07-09T07:53:42;23.30;99.90
69901;DHT22;57183;50.930;5.406;2022-07-09T07:56:08;23.30;99.90
69901;DHT22;57183;50.930;5.406;2022-07-09T07:58:34;23.40;99.90
69901;DHT22;57183;50.930;5.406;2022-07-09T08:01:00;23.60;99.90
69901;DHT22;57183;50.930;5.406;2022-07-09T08:03:26;23.60;99.90
69901;DHT22;57183;50.930;5.406;2022-07-09T08:05:52;23.60;99.90
69901;DHT22;57183;50.930;5.406;2022-07-09T08:08:17;23.60;99.90
69901;DHT22;57183;50.930;5.406;2022-07-09T08:10:47;23.40;99.90
69901;DHT22;57183;50.930;5.406;2022-07-09T08:13:14;23.20;99.90
69901;DHT22;57183;50.930;5.406;2022-07-09T08:15:40;23.20;99.90
69901;DHT22;57183;50.930;5.406;2022-07-09T08:18:06;23.20;99.90
69901;DHT22;57183;50.930;5.406;2022-07-09T08:20:34;23.20;99.90
69901;DHT22;57183;50.930;5.406;2022-07-09T08:23:02;23.40;99.90
69901;DHT22;57183;50.930;5.406;2022-07-09T08:25:27;23.30;99.90
69901;DHT22;57183;50.930;5.406;2022-07-09T08:27:53;23.40;99.90
69901;DHT22;57183;50.930;5.406;2022-07-09T08:30:19;23.50;99.90
69901;DHT22;57183;50.930;5.406;2022-07-09T08:32:45;23.60;99.90
69901;DHT22;57183;50.930;5.406;2022-07-09T08:35:10;23.50;99.90
69901;DHT22;57183;50.930;5.406;2022-07-09T08:37:36;23.30;99.90
69901;DHT22;57183;50.930;5.406;2022-07-09T08:40:02;23.30;99.90
69901;DHT22;57183;50.930;5.406;2022-07-09T08:42:28;23.20;99.90
69901;DHT22;57183;50.930;5.406;2022-07-09T08:44:54;23.40;99.90
69901;DHT22;57183;50.930;5.406;2022-07-09T08:47:20;23.50;99.90
69901;DHT22;57183;50.930;5.406;2022-07-09T08:49:47;23.40;99.90
69901;DHT22;57183;50.930;5.406;2022-07-09T08:52:15;23.60;99.90
69901;DHT22;57183;50.930;5.406;2022-07-09T08:54:42;23.80;99.90
69901;DHT22;57183;50.930;5.406;2022-07-09T08:57:09;23.90;99.20
69901;DHT22;57183;50.930;5.406;2022-07-09T08:59:35;24.00;99.90
69901;DHT22;57183;50.930;5.406;2022-07-09T09:02:07;24.30;99.90
69901;DHT22;57183;50.930;5.406;2022-07-09T09:04:37;24.50;99.50
69901;DHT22;57183;50.930;5.406;2022-07-09T09:07:16;24.70;97.60
69901;DHT22;57183;50.930;5.406;2022-07-09T09:09:42;24.80;97.20
69901;DHT22;57183;50.930;5.406;2022-07-09T09:12:08;24.90;97.30
69901;DHT22;57183;50.930;5.406;2022-07-09T09:14:34;24.90;96.30
69901;DHT22;57183;50.930;5.406;2022-07-09T09:17:09;24.90;96.50
69901;DHT22;57183;50.930;5.406;2022-07-09T09:19:38;24.70;96.70
69901;DHT22;57183;50.930;5.406;2022-07-09T09:22:04;24.70;97.20
69901;DHT22;57183;50.930;5.406;2022-07-09T09:24:30;24.60;96.40
69901;DHT22;57183;50.930;5.406;2022-07-09T09:26:59;24.80;97.00
69901;DHT22;57183;50.930;5.406;2022-07-09T09:29:25;25.00;97.00
69901;DHT22;57183;50.930;5.406;2022-07-09T09:31:51;25.30;97.00
69901;DHT22;57183;50.930;5.406;2022-07-09T09:34:18;25.40;96.70
69901;DHT22;57183;50.930;5.406;2022-07-09T09:36:49;25.20;96.40
69901;DHT22;57183;50.930;5.406;2022-07-09T09:39:25;25.20;96.70
69901;DHT22;57183;50.930;5.406;2022-07-09T09:41:58;25.30;96.10
69901;DHT22;57183;50.930;5.406;2022-07-09T09:44:26;25.40;96.40
69901;DHT22;57183;50.930;5.406;2022-07-09T09:46:53;25.30;96.70
69901;DHT22;57183;50.930;5.406;2022-07-09T09:49:19;25.10;97.20
69901;DHT22;57183;50.930;5.406;2022-07-09T09:54:24;24.70;98.50
69901;DHT22;57183;50.930;5.406;2022-07-09T09:56:50;24.70;98.70
69901;DHT22;57183;50.930;5.406;2022-07-09T09:59:18;24.70;98.20
69901;DHT22;57183;50.930;5.406;2022-07-09T10:01:44;24.60;98.70
69901;DHT22;57183;50.930;5.406;2022-07-09T10:04:13;24.70;98.00
69901;DHT22;57183;50.930;5.406;2022-07-09T10:06:39;25.00;98.00
69901;DHT22;57183;50.930;5.406;2022-07-09T10:09:06;25.10;95.80
69901;DHT22;57183;50.930;5.406;2022-07-09T10:14:18;25.30;96.00
69901;DHT22;57183;50.930;5.406;2022-07-09T10:16:54;25.30;96.30
69901;DHT22;57183;50.930;5.406;2022-07-09T10:19:29;25.20;97.10
69901;DHT22;57183;50.930;5.406;2022-07-09T10:21:57;25.10;97.00
69901;DHT22;57183;50.930;5.406;2022-07-09T10:24:33;25.10;96.60
69901;DHT22;57183;50.930;5.406;2022-07-09T10:27:10;25.10;97.40
69901;DHT22;57183;50.930;5.406;2022-07-09T10:29:52;25.20;97.10
69901;DHT22;57183;50.930;5.406;2022-07-09T10:32:24;25.50;96.90
69901;DHT22;57183;50.930;5.406;2022-07-09T10:37:41;25.00;98.30
69901;DHT22;57183;50.930;5.406;2022-07-09T10:40:18;25.10;97.50
69901;DHT22;57183;50.930;5.406;2022-07-09T10:42:46;25.20;98.40
69901;DHT22;57183;50.930;5.406;2022-07-09T10:45:26;25.40;98.90
69901;DHT22;57183;50.930;5.406;2022-07-09T10:48:03;25.60;97.70
69901;DHT22;57183;50.930;5.406;2022-07-09T10:50:31;26.00;96.70
69901;DHT22;57183;50.930;5.406;2022-07-09T10:52:57;26.00;95.30
69901;DHT22;57183;50.930;5.406;2022-07-09T10:55:26;25.60;95.50
69901;DHT22;57183;50.930;5.406;2022-07-09T10:57:53;25.30;96.00
69901;DHT22;57183;50.930;5.406;2022-07-09T11:00:26;25.30;96.50
69901;DHT22;57183;50.930;5.406;2022-07-09T11:02:56;25.60;97.00
69901;DHT22;57183;50.930;5.406;2022-07-09T11:05:26;25.70;97.00
69901;DHT22;57183;50.930;5.406;2022-07-09T11:07:57;25.50;95.90
69901;DHT22;57183;50.930;5.406;2022-07-09T11:10:24;25.50;95.70
69901;DHT22;57183;50.930;5.406;2022-07-09T11:12:51;25.80;96.20
69901;DHT22;57183;50.930;5.406;2022-07-09T11:15:20;25.90;95.30
69901;DHT22;57183;50.930;5.406;2022-07-09T11:18:12;25.70;96.00
69901;DHT22;57183;50.930;5.406;2022-07-09T11:20:45;25.70;95.40
69901;DHT22;57183;50.930;5.406;2022-07-09T11:23:12;25.50;96.20
69901;DHT22;57183;50.930;5.406;2022-07-09T11:25:38;25.50;95.80
69901;DHT22;57183;50.930;5.406;2022-07-09T11:28:04;25.30;95.70
69901;DHT22;57183;50.930;5.406;2022-07-09T11:30:30;25.30;96.40
69901;DHT22;57183;50.930;5.406;2022-07-09T11:32:58;25.40;97.70
69901;DHT22;57183;50.930;5.406;2022-07-09T11:37:55;25.50;95.90
69901;DHT22;57183;50.930;5.406;2022-07-09T11:40:21;25.70;96.10
69901;DHT22;57183;50.930;5.406;2022-07-09T11:42:47;25.70;95.50
69901;DHT22;57183;50.930;5.406;2022-07-09T11:45:15;25.60;95.70
69901;DHT22;57183;50.930;5.406;2022-07-09T11:47:44;25.70;96.10
69901;DHT22;57183;50.930;5.406;2022-07-09T11:50:15;25.90;95.20
69901;DHT22;57183;50.930;5.406;2022-07-09T11:52:49;25.50;95.10
69901;DHT22;57183;50.930;5.406;2022-07-09T11:55:17;25.20;96.20
69901;DHT22;57183;50.930;5.406;2022-07-09T11:57:57;25.10;96.70
69901;DHT22;57183;50.930;5.406;2022-07-09T12:00:27;25.30;97.30
69901;DHT22;57183;50.930;5.406;2022-07-09T12:02:55;25.30;96.80
69901;DHT22;57183;50.930;5.406;2022-07-09T12:05:32;25.10;97.10
69901;DHT22;57183;50.930;5.406;2022-07-09T12:07:59;25.10;97.40
69901;DHT22;57183;50.930;5.406;2022-07-09T12:10:30;25.00;97.70
69901;DHT22;57183;50.930;5.406;2022-07-09T12:12:58;24.90;98.60
69901;DHT22;57183;50.930;5.406;2022-07-09T12:15:24;24.60;98.40
69901;DHT22;57183;50.930;5.406;2022-07-09T12:17:52;24.50;99.10
69901;DHT22;57183;50.930;5.406;2022-07-09T12:20:18;24.70;99.30
69901;DHT22;57183;50.930;5.406;2022-07-09T12:22:43;24.80;98.30
69901;DHT22;57183;50.930;5.406;2022-07-09T12:25:09;25.10;98.00
69901;DHT22;57183;50.930;5.406;2022-07-09T12:27:35;25.20;96.30
69901;DHT22;57183;50.930;5.406;2022-07-09T12:30:01;25.10;96.60
69901;DHT22;57183;50.930;5.406;2022-07-09T12:32:26;24.70;97.50
69901;DHT22;57183;50.930;5.406;2022-07-09T12:34:52;24.60;98.70
69901;DHT22;57183;50.930;5.406;2022-07-09T12:37:18;24.50;98.70
69901;DHT22;57183;50.930;5.406;2022-07-09T12:39:44;24.40;98.10
69901;DHT22;57183;50.930;5.406;2022-07-09T12:42:09;24.40;98.20
69901;DHT22;57183;50.930;5.406;2022-07-09T12:44:35;24.70;98.00
69901;DHT22;57183;50.930;5.406;2022-07-09T12:47:01;24.90;97.70
69901;DHT22;57183;50.930;5.406;2022-07-09T12:49:26;24.60;96.90
69901;DHT22;57183;50.930;5.406;2022-07-09T12:51:52;24.30;97.40
69901;DHT22;57183;50.930;5.406;2022-07-09T12:54:18;24.20;97.50
69901;DHT22;57183;50.930;5.406;2022-07-09T12:56:43;24.20;97.60
69901;DHT22;57183;50.930;5.406;2022-07-09T12:59:09;24.20;97.80
69901;DHT22;57183;50.930;5.406;2022-07-09T13:01:35;24.10;98.20
69901;DHT22;57183;50.930;5.406;2022-07-09T13:04:00;24.20;97.60
69901;DHT22;57183;50.930;5.406;2022-07-09T13:06:26;24.40;97.00
69901;DHT22;57183;50.930;5.406;2022-07-09T13:08:58;24.30;96.70
69901;DHT22;57183;50.930;5.406;2022-07-09T13:11:24;24.50;96.60
69901;DHT22;57183;50.930;5.406;2022-07-09T13:13:50;24.90;96.10
69901;DHT22;57183;50.930;5.406;2022-07-09T13:16:16;24.80;93.60
69901;DHT22;57183;50.930;5.406;2022-07-09T13:18:42;24.80;93.10
69901;DHT22;57183;50.930;5.406;2022-07-09T13:21:08;24.60;93.00
69901;DHT22;57183;50.930;5.406;2022-07-09T13:23:34;24.60;92.40
69901;DHT22;57183;50.930;5.406;2022-07-09T13:25:59;24.80;92.60
69901;DHT22;57183;50.930;5.406;2022-07-09T13:28:25;24.80;93.10
69901;DHT22;57183;50.930;5.406;2022-07-09T13:30:51;25.00;92.50
69901;DHT22;57183;50.930;5.406;2022-07-09T13:33:17;25.00;91.70
69901;DHT22;57183;50.930;5.406;2022-07-09T13:35:42;25.10;92.50
69901;DHT22;57183;50.930;5.406;2022-07-09T13:38:08;25.30;92.00
69901;DHT22;57183;50.930;5.406;2022-07-09T13:40:34;25.40;91.50
69901;DHT22;57183;50.930;5.406;2022-07-09T13:43:00;25.30;91.40
69901;DHT22;57183;50.930;5.406;2022-07-09T13:45:25;25.10;92.00
69901;DHT22;57183;50.930;5.406;2022-07-09T13:47:53;25.20;91.70
69901;DHT22;57183;50.930;5.406;2022-07-09T13:50:19;25.30;91.40
69901;DHT22;57183;50.930;5.406;2022-07-09T13:52:45;25.10;91.10
69901;DHT22;57183;50.930;5.406;2022-07-09T13:55:10;25.20;91.60
69901;DHT22;57183;50.930;5.406;2022-07-09T13:57:36;25.80;91.30
69901;DHT22;57183;50.930;5.406;2022-07-09T14:00:04;26.30;91.00
69901;DHT22;57183;50.930;5.406;2022-07-09T14:02:30;25.80;90.90
69901;DHT22;57183;50.930;5.406;2022-07-09T14:04:58;25.60;90.40
69901;DHT22;57183;50.930;5.406;2022-07-09T14:07:23;25.50;90.70
69901;DHT22;57183;50.930;5.406;2022-07-09T14:09:49;26.30;89.40
69901;DHT22;57183;50.930;5.406;2022-07-09T14:12:15;27.20;88.90
69901;DHT22;57183;50.930;5.406;2022-07-09T14:14:42;27.60;88.10
69901;DHT22;57183;50.930;5.406;2022-07-09T14:17:08;27.80;87.20
69901;DHT22;57183;50.930;5.406;2022-07-09T14:19:34;26.50;89.10
69901;DHT22;57183;50.930;5.406;2022-07-09T14:21:59;25.60;90.50
69901;DHT22;57183;50.930;5.406;2022-07-09T14:24:25;25.60;90.70
69901;DHT22;57183;50.930;5.406;2022-07-09T14:26:51;25.50;90.20
69901;DHT22;57183;50.930;5.406;2022-07-09T14:29:17;25.60;90.30
69901;DHT22;57183;50.930;5.406;2022-07-09T14:31:43;26.00;90.10
69901;DHT22;57183;50.930;5.406;2022-07-09T14:34:09;26.10;88.10
69901;DHT22;57183;50.930;5.406;2022-07-09T14:36:35;25.50;89.00
69901;DHT22;57183;50.930;5.406;2022-07-09T14:39:02;25.60;89.60
69901;DHT22;57183;50.930;5.406;2022-07-09T14:41:28;25.80;87.60
69901;DHT22;57183;50.930;5.406;2022-07-09T14:43:54;25.40;88.40
69901;DHT22;57183;50.930;5.406;2022-07-09T14:46:20;25.20;89.50
69901;DHT22;57183;50.930;5.406;2022-07-09T14:48:46;24.90;90.20
69901;DHT22;57183;50.930;5.406;2022-07-09T14:51:12;24.50;90.70
69901;DHT22;57183;50.930;5.406;2022-07-09T14:53:38;24.40;90.50
69901;DHT22;57183;50.930;5.406;2022-07-09T14:56:04;24.60;90.00
69901;DHT22;57183;50.930;5.406;2022-07-09T14:58:30;25.10;89.00
69901;DHT22;57183;50.930;5.406;2022-07-09T15:00:57;24.80;88.30
69901;DHT22;57183;50.930;5.406;2022-07-09T15:03:23;25.70;87.50
69901;DHT22;57183;50.930;5.406;2022-07-09T15:05:49;26.90;83.30
69901;DHT22;57183;50.930;5.406;2022-07-09T15:08:14;27.40;79.70
69901;DHT22;57183;50.930;5.406;2022-07-09T15:10:40;27.10;79.80
69901;DHT22;57183;50.930;5.406;2022-07-09T15:13:06;27.20;79.50
69901;DHT22;57183;50.930;5.406;2022-07-09T15:15:32;27.60;79.00
69901;DHT22;57183;50.930;5.406;2022-07-09T15:17:59;27.50;76.60
69901;DHT22;57183;50.930;5.406;2022-07-09T15:20:25;27.80;76.50
69901;DHT22;57183;50.930;5.406;2022-07-09T15:22:51;27.00;76.80
69901;DHT22;57183;50.930;5.406;2022-07-09T15:25:16;26.70;76.60
69901;DHT22;57183;50.930;5.406;2022-07-09T15:27:42;27.00;75.80
69901;DHT22;57183;50.930;5.406;2022-07-09T15:30:08;26.70;77.30
69901;DHT22;57183;50.930;5.406;2022-07-09T15:32:34;26.80;76.80
69901;DHT22;57183;50.930;5.406;2022-07-09T15:35:00;26.90;77.90
69901;DHT22;57183;50.930;5.406;2022-07-09T15:37:26;27.10;76.80